sensor_id;sensor_type;location;lat;lon;timestamp;pressure;altitude;pressure_sealevel;temperature;humidity
11987;BME280;6053;51.382;6.768;2023-11-19T00:02:06;100761.59;;;11.69;72.55
11987;BME280;6053;51.382;6.768;2023-11-19T00:04:37;100772.34;;;11.92;71.51
11987;BME280;6053;51.382;6.768;2023-11-19T00:07:08;100799.22;;;12.20;68.80
11987;BME280;6053;51.382;6.768;2023-11-19T00:09:42;100792.66;;;12.26;68.61
11987;BME280;6053;51.382;6.768;2023-11-19T00:12:16;100797.97;;;12.33;71.73
11987;BME280;6053;51.382;6.768;2023-11-19T00:14:45;100792.53;;;12.05;70.74
11987;BME280;6053;51.382;6.768;2023-11-19T00:17:17;100794.00;;;12.10;72.91
11987;BME280;6053;51.382;6.768;2023-11-19T00:19:45;100791.56;;;12.36;67.88
11987;BME280;6053;51.382;6.768;2023-11-19T00:22:16;100784.94;;;12.34;69.17
11987;BME280;6053;51.382;6.768;2023-11-19T00:24:46;100789.88;;;12.26;72.89
11987;BME280;6053;51.382;6.768;2023-11-19T00:27:17;100793.44;;;11.74;79.68
11987;BME280;6053;51.382;6.768;2023-11-19T00:29:46;100793.06;;;12.00;74.30
11987;BME280;6053;51.382;6.768;2023-11-19T00:32:14;100777.22;;;11.88;74.69
11987;BME280;6053;51.382;6.768;2023-11-19T00:34:49;100775.56;;;11.91;75.44
11987;BME280;6053;51.382;6.768;2023-11-19T00:37:18;100767.81;;;11.86;82.53
11987;BME280;6053;51.382;6.768;2023-11-19T00:39:48;100767.72;;;11.89;80.17
11987;BME280;6053;51.382;6.768;2023-11-19T00:42:19;100769.78;;;11.85;82.00
11987;BME280;6053;51.382;6.768;2023-11-19T00:44:48;100768.16;;;12.00;80.54
11987;BME280;6053;51.382;6.768;2023-11-19T00:47:18;100764.63;;;12.00;76.61
11987;BME280;6053;51.382;6.768;2023-11-19T00:49:48;100759.53;;;12.11;79.36
11987;BME280;6053;51.382;6.768;2023-11-19T00:52:17;100752.88;;;12.08;75.46
11987;BME280;6053;51.382;6.768;2023-11-19T00:54:47;100755.56;;;12.12;78.79
11987;BME280;6053;51.382;6.768;2023-11-19T00:57:16;100744.28;;;12.06;77.57
11987;BME280;6053;51.382;6.768;2023-11-19T00:59:48;100739.06;;;12.08;81.14
11987;BME280;6053;51.382;6.768;2023-11-19T01:02:16;100733.97;;;12.07;77.41
11987;BME280;6053;51.382;6.768;2023-11-19T01:04:52;100736.97;;;12.12;82.20
11987;BME280;6053;51.382;6.768;2023-11-19T01:07:21;100740.38;;;12.16;80.41
11987;BME280;6053;51.382;6.768;2023-11-19T01:09:54;100733.41;;;11.99;84.46
11987;BME280;6053;51.382;6.768;2023-11-19T01:12:26;100736.81;;;11.91;83.37
11987;BME280;6053;51.382;6.768;2023-11-19T01:14:58;100733.50;;;12.08;78.45
11987;BME280;6053;51.382;6.768;2023-11-19T01:17:26;100728.09;;;12.29;76.43
11987;BME280;6053;51.382;6.768;2023-11-19T01:19:58;100730.31;;;12.34;83.42
11987;BME280;6053;51.382;6.768;2023-11-19T01:22:26;100744.25;;;12.31;80.98
11987;BME280;6053;51.382;6.768;2023-11-19T01:24:59;100736.63;;;12.22;84.17
11987;BME280;6053;51.382;6.768;2023-11-19T01:27:27;100743.50;;;12.30;79.06
11987;BME280;6053;51.382;6.768;2023-11-19T01:29:56;100744.94;;;12.35;77.25
11987;BME280;6053;51.382;6.768;2023-11-19T01:32:27;100744.81;;;12.26;83.70
11987;BME280;6053;51.382;6.768;2023-11-19T01:34:58;100741.94;;;12.17;80.47
11987;BME280;6053;51.382;6.768;2023-11-19T01:37:29;100752.38;;;12.13;85.88
11987;BME280;6053;51.382;6.768;2023-11-19T01:40:00;100750.78;;;12.24;81.32
11987;BME280;6053;51.382;6.768;2023-11-19T01:42:35;100747.25;;;12.36;77.29
11987;BME280;6053;51.382;6.768;2023-11-19T01:45:05;100744.72;;;12.42;79.38
11987;BME280;6053;51.382;6.768;2023-11-19T01:47:35;100742.47;;;12.49;78.41
11987;BME280;6053;51.382;6.768;2023-11-19T01:50:07;100733.41;;;12.49;81.41
11987;BME280;6053;51.382;6.768;2023-11-19T01:52:39;100739.06;;;12.45;76.11
11987;BME280;6053;51.382;6.768;2023-11-19T01:55:13;100732.50;;;12.52;81.89
11987;BME280;6053;51.382;6.768;2023-11-19T01:57:42;100734.84;;;12.41;83.28
11987;BME280;6053;51.382;6.768;2023-11-19T02:00:12;100746.16;;;12.34;78.39
11987;BME280;6053;51.382;6.768;2023-11-19T02:02:42;100737.81;;;12.59;75.32
11987;BME280;6053;51.382;6.768;2023-11-19T02:05:12;100719.50;;;12.61;79.18
11987;BME280;6053;51.382;6.768;2023-11-19T02:07:45;100711.66;;;12.47;81.87
11987;BME280;6053;51.382;6.768;2023-11-19T02:10:15;100703.59;;;12.40;80.75
11987;BME280;6053;51.382;6.768;2023-11-19T02:12:52;100698.38;;;12.42;81.06
11987;BME280;6053;51.382;6.768;2023-11-19T02:15:35;100681.53;;;12.49;79.12
11987;BME280;6053;51.382;6.768;2023-11-19T02:18:35;100678.25;;;12.42;81.10
11987;BME280;6053;51.382;6.768;2023-11-19T02:21:09;100672.94;;;12.35;83.08
11987;BME280;6053;51.382;6.768;2023-11-19T02:23:38;100677.44;;;12.41;79.37
11987;BME280;6053;51.382;6.768;2023-11-19T02:26:18;100678.44;;;12.47;82.18
11987;BME280;6053;51.382;6.768;2023-11-19T02:28:52;100679.66;;;12.46;82.25
11987;BME280;6053;51.382;6.768;2023-11-19T02:31:23;100684.88;;;12.44;81.03
11987;BME280;6053;51.382;6.768;2023-11-19T02:33:59;100692.22;;;12.38;83.79
11987;BME280;6053;51.382;6.768;2023-11-19T02:36:28;100687.88;;;12.37;84.28
11987;BME280;6053;51.382;6.768;2023-11-19T02:38:56;100692.75;;;12.33;84.61
11987;BME280;6053;51.382;6.768;2023-11-19T02:41:24;100683.44;;;12.40;83.34
11987;BME280;6053;51.382;6.768;2023-11-19T02:43:56;100675.75;;;12.56;82.67
11987;BME280;6053;51.382;6.768;2023-11-19T02:46:25;100676.97;;;12.55;80.98
11987;BME280;6053;51.382;6.768;2023-11-19T02:48:56;100669.69;;;12.49;83.45
11987;BME280;6053;51.382;6.768;2023-11-19T02:51:27;100671.00;;;12.57;81.84
11987;BME280;6053;51.382;6.768;2023-11-19T02:53:57;100669.88;;;12.54;79.77
11987;BME280;6053;51.382;6.768;2023-11-19T02:56:31;100667.44;;;12.56;82.37
11987;BME280;6053;51.382;6.768;2023-11-19T02:59:08;100665.41;;;12.69;81.53
11987;BME280;6053;51.382;6.768;2023-11-19T03:01:50;100664.03;;;12.52;83.71
11987;BME280;6053;51.382;6.768;2023-11-19T03:04:19;100658.69;;;12.58;82.77
11987;BME280;6053;51.382;6.768;2023-11-19T03:06:50;100661.16;;;12.56;84.95
11987;BME280;6053;51.382;6.768;2023-11-19T03:09:23;100658.09;;;12.75;81.69
11987;BME280;6053;51.382;6.768;2023-11-19T03:11:51;100655.59;;;12.56;82.08
11987;BME280;6053;51.382;6.768;2023-11-19T03:14:21;100649.13;;;12.71;79.75
11987;BME280;6053;51.382;6.768;2023-11-19T03:16:55;100651.38;;;12.64;83.34
11987;BME280;6053;51.382;6.768;2023-11-19T03:19:38;100657.59;;;12.55;82.05
11987;BME280;6053;51.382;6.768;2023-11-19T03:22:07;100665.34;;;12.60;83.18
11987;BME280;6053;51.382;6.768;2023-11-19T03:24:37;100669.34;;;12.59;81.57
11987;BME280;6053;51.382;6.768;2023-11-19T03:27:09;100666.22;;;12.57;83.08
11987;BME280;6053;51.382;6.768;2023-11-19T03:29:47;100663.34;;;12.61;82.51
11987;BME280;6053;51.382;6.768;2023-11-19T03:32:18;100665.78;;;12.59;81.49
11987;BME280;6053;51.382;6.768;2023-11-19T03:35:03;100671.63;;;12.73;78.29
11987;BME280;6053;51.382;6.768;2023-11-19T03:37:35;100675.81;;;12.78;80.72
11987;BME280;6053;51.382;6.768;2023-11-19T03:40:07;100677.75;;;12.56;77.08
11987;BME280;6053;51.382;6.768;2023-11-19T03:42:37;100672.41;;;12.61;82.11
11987;BME280;6053;51.382;6.768;2023-11-19T03:45:08;100671.06;;;12.66;78.74
11987;BME280;6053;51.382;6.768;2023-11-19T03:47:37;100662.38;;;12.55;80.03
11987;BME280;6053;51.382;6.768;2023-11-19T03:50:11;100660.81;;;12.54;80.19
11987;BME280;6053;51.382;6.768;2023-11-19T03:52:42;100664.69;;;12.44;81.27
11987;BME280;6053;51.382;6.768;2023-11-19T03:55:17;100671.91;;;12.41;80.07
11987;BME280;6053;51.382;6.768;2023-11-19T03:57:48;100674.34;;;12.39;81.44
11987;BME280;6053;51.382;6.768;2023-11-19T04:00:21;100679.47;;;12.41;80.26
11987;BME280;6053;51.382;6.768;2023-11-19T04:02:52;100688.97;;;12.40;81.64
11987;BME280;6053;51.382;6.768;2023-11-19T04:05:24;100682.63;;;12.52;79.53
11987;BME280;6053;51.382;6.768;2023-11-19T04:07:52;100683.44;;;12.40;77.11
11987;BME280;6053;51.382;6.768;2023-11-19T04:10:20;100685.13;;;12.71;75.53
11987;BME280;6053;51.382;6.768;2023-11-19T04:12:53;100684.44;;;12.46;78.43
11987;BME280;6053;51.382;6.768;2023-11-19T04:15:32;100683.91;;;12.72;75.40
11987;BME280;6053;51.382;6.768;2023-11-19T04:18:00;100674.78;;;12.50;79.17
11987;BME280;6053;51.382;6.768;2023-11-19T04:20:32;100676.97;;;12.55;79.41
11987;BME280;6053;51.382;6.768;2023-11-19T04:23:03;100683.72;;;12.54;78.31
11987;BME280;6053;51.382;6.768;2023-11-19T04:25:36;100687.19;;;12.46;79.11
11987;BME280;6053;51.382;6.768;2023-11-19T04:28:08;100688.63;;;12.84;74.23
11987;BME280;6053;51.382;6.768;2023-11-19T04:30:45;100691.22;;;12.79;76.75
11987;BME280;6053;51.382;6.768;2023-11-19T04:33:13;100690.84;;;12.43;78.88
11987;BME280;6053;51.382;6.768;2023-11-19T04:35:42;100684.53;;;12.55;78.91
11987;BME280;6053;51.382;6.768;2023-11-19T04:38:10;100688.41;;;12.45;78.95
11987;BME280;6053;51.382;6.768;2023-11-19T04:40:38;100688.06;;;12.43;78.57
11987;BME280;6053;51.382;6.768;2023-11-19T04:43:10;100685.75;;;12.41;78.22
11987;BME280;6053;51.382;6.768;2023-11-19T04:45:41;100682.22;;;12.87;72.80
11987;BME280;6053;51.382;6.768;2023-11-19T04:48:11;100690.63;;;12.50;77.81
11987;BME280;6053;51.382;6.768;2023-11-19T04:50:39;100689.38;;;12.63;77.37
11987;BME280;6053;51.382;6.768;2023-11-19T04:53:07;100679.66;;;12.46;78.19
11987;BME280;6053;51.382;6.768;2023-11-19T04:55:42;100697.19;;;12.43;80.33
11987;BME280;6053;51.382;6.768;2023-11-19T04:58:13;100705.91;;;12.54;77.42
11987;BME280;6053;51.382;6.768;2023-11-19T05:00:47;100709.09;;;12.65;76.17
11987;BME280;6053;51.382;6.768;2023-11-19T05:03:16;100708.75;;;12.63;78.49
11987;BME280;6053;51.382;6.768;2023-11-19T05:05:48;100715.84;;;12.64;76.98
11987;BME280;6053;51.382;6.768;2023-11-19T05:08:22;100706.91;;;12.48;79.45
11987;BME280;6053;51.382;6.768;2023-11-19T05:10:54;100693.50;;;12.46;78.94
11987;BME280;6053;51.382;6.768;2023-11-19T05:13:22;100693.94;;;12.45;78.61
11987;BME280;6053;51.382;6.768;2023-11-19T05:15:51;100703.69;;;12.49;78.41
11987;BME280;6053;51.382;6.768;2023-11-19T05:18:21;100700.44;;;12.63;75.93
11987;BME280;6053;51.382;6.768;2023-11-19T05:20:52;100698.28;;;12.46;78.34
11987;BME280;6053;51.382;6.768;2023-11-19T05:23:20;100688.50;;;12.54;78.62
11987;BME280;6053;51.382;6.768;2023-11-19T05:25:49;100692.81;;;12.67;77.24
11987;BME280;6053;51.382;6.768;2023-11-19T05:28:18;100696.69;;;12.57;77.80
11987;BME280;6053;51.382;6.768;2023-11-19T05:30:48;100703.13;;;12.54;79.08
11987;BME280;6053;51.382;6.768;2023-11-19T05:33:20;100708.47;;;12.49;78.16
11987;BME280;6053;51.382;6.768;2023-11-19T05:35:51;100709.47;;;12.42;78.64
11987;BME280;6053;51.382;6.768;2023-11-19T05:38:19;100708.91;;;12.47;78.48
11987;BME280;6053;51.382;6.768;2023-11-19T05:40:48;100715.56;;;12.37;79.25
11987;BME280;6053;51.382;6.768;2023-11-19T05:43:17;100710.91;;;12.47;78.55
11987;BME280;6053;51.382;6.768;2023-11-19T05:45:47;100711.56;;;12.51;77.40
11987;BME280;6053;51.382;6.768;2023-11-19T05:48:16;100717.53;;;12.49;78.17
11987;BME280;6053;51.382;6.768;2023-11-19T05:50:48;100713.41;;;12.66;77.02
11987;BME280;6053;51.382;6.768;2023-11-19T05:53:17;100714.06;;;12.70;75.95
11987;BME280;6053;51.382;6.768;2023-11-19T05:55:45;100721.41;;;12.64;76.13
11987;BME280;6053;51.382;6.768;2023-11-19T05:58:24;100717.53;;;12.62;76.45
11987;BME280;6053;51.382;6.768;2023-11-19T06:00:56;100720.03;;;12.81;75.57
11987;BME280;6053;51.382;6.768;2023-11-19T06:03:27;100714.91;;;12.92;75.41
11987;BME280;6053;51.382;6.768;2023-11-19T06:05:57;100719.41;;;13.11;73.23
11987;BME280;6053;51.382;6.768;2023-11-19T06:08:29;100723.66;;;13.03;72.82
11987;BME280;6053;51.382;6.768;2023-11-19T06:10:58;100723.44;;;12.85;74.84
11987;BME280;6053;51.382;6.768;2023-11-19T06:13:28;100714.06;;;12.70;75.43
11987;BME280;6053;51.382;6.768;2023-11-19T06:15:58;100711.59;;;12.38;77.54
11987;BME280;6053;51.382;6.768;2023-11-19T06:18:30;100721.41;;;12.52;76.65
11987;BME280;6053;51.382;6.768;2023-11-19T06:21:01;100723.31;;;12.42;76.33
11987;BME280;6053;51.382;6.768;2023-11-19T06:23:29;100724.09;;;12.43;75.49
11987;BME280;6053;51.382;6.768;2023-11-19T06:26:01;100722.25;;;12.74;73.81
11987;BME280;6053;51.382;6.768;2023-11-19T06:28:41;100720.19;;;12.53;74.85
11987;BME280;6053;51.382;6.768;2023-11-19T06:31:14;100718.88;;;12.57;73.79
11987;BME280;6053;51.382;6.768;2023-11-19T06:33:49;100716.47;;;12.10;76.86
11987;BME280;6053;51.382;6.768;2023-11-19T06:36:19;100717.75;;;12.55;73.63
11987;BME280;6053;51.382;6.768;2023-11-19T06:38:48;100710.28;;;12.30;74.49
11987;BME280;6053;51.382;6.768;2023-11-19T06:41:16;100711.59;;;12.26;75.11
11987;BME280;6053;51.382;6.768;2023-11-19T06:43:45;100727.13;;;12.23;74.69
11987;BME280;6053;51.382;6.768;2023-11-19T06:46:19;100727.75;;;12.52;73.57
11987;BME280;6053;51.382;6.768;2023-11-19T06:48:47;100729.41;;;12.13;75.05
11987;BME280;6053;51.382;6.768;2023-11-19T06:51:16;100731.09;;;12.22;75.01
11987;BME280;6053;51.382;6.768;2023-11-19T06:53:45;100733.97;;;12.31;74.27
11987;BME280;6053;51.382;6.768;2023-11-19T06:56:23;100733.63;;;12.29;74.42
11987;BME280;6053;51.382;6.768;2023-11-19T06:58:55;100728.97;;;12.39;74.37
11987;BME280;6053;51.382;6.768;2023-11-19T07:01:25;100726.09;;;12.30;73.74
11987;BME280;6053;51.382;6.768;2023-11-19T07:03:57;100733.28;;;12.27;74.41
11987;BME280;6053;51.382;6.768;2023-11-19T07:06:33;100728.88;;;12.30;74.42
11987;BME280;6053;51.382;6.768;2023-11-19T07:09:04;100738.06;;;12.15;75.24
11987;BME280;6053;51.382;6.768;2023-11-19T07:11:37;100740.59;;;12.09;74.91
11987;BME280;6053;51.382;6.768;2023-11-19T07:14:07;100731.09;;;12.10;74.84
11987;BME280;6053;51.382;6.768;2023-11-19T07:16:36;100740.03;;;12.14;74.44
11987;BME280;6053;51.382;6.768;2023-11-19T07:19:05;100740.06;;;12.26;74.26
11987;BME280;6053;51.382;6.768;2023-11-19T07:21:41;100745.03;;;12.07;74.42
11987;BME280;6053;51.382;6.768;2023-11-19T07:24:14;100736.59;;;11.98;74.54
11987;BME280;6053;51.382;6.768;2023-11-19T07:26:51;100743.72;;;12.23;73.32
11987;BME280;6053;51.382;6.768;2023-11-19T07:29:34;100756.78;;;12.35;73.35
11987;BME280;6053;51.382;6.768;2023-11-19T07:32:08;100758.34;;;12.36;72.67
11987;BME280;6053;51.382;6.768;2023-11-19T07:34:40;100772.84;;;12.28;73.61
11987;BME280;6053;51.382;6.768;2023-11-19T07:37:23;100764.75;;;12.09;73.50
11987;BME280;6053;51.382;6.768;2023-11-19T07:39:53;100771.28;;;12.15;73.67
11987;BME280;6053;51.382;6.768;2023-11-19T07:42:25;100782.97;;;12.81;71.66
11987;BME280;6053;51.382;6.768;2023-11-19T07:44:59;100786.38;;;12.38;73.00
11987;BME280;6053;51.382;6.768;2023-11-19T07:47:30;100791.78;;;12.29;72.96
11987;BME280;6053;51.382;6.768;2023-11-19T07:49:59;100792.75;;;12.73;72.08
11987;BME280;6053;51.382;6.768;2023-11-19T07:52:27;100802.53;;;12.52;71.95
11987;BME280;6053;51.382;6.768;2023-11-19T07:55:00;100807.50;;;12.45;72.66
11987;BME280;6053;51.382;6.768;2023-11-19T07:57:32;100816.34;;;12.15;73.14
11987;BME280;6053;51.382;6.768;2023-11-19T08:00:06;100819.59;;;12.38;73.19
11987;BME280;6053;51.382;6.768;2023-11-19T08:02:39;100816.94;;;12.60;72.82
11987;BME280;6053;51.382;6.768;2023-11-19T08:05:13;100832.00;;;12.84;71.42
11987;BME280;6053;51.382;6.768;2023-11-19T08:07:42;100837.97;;;13.07;70.31
11987;BME280;6053;51.382;6.768;2023-11-19T08:10:14;100836.09;;;12.54;72.03
11987;BME280;6053;51.382;6.768;2023-11-19T08:12:43;100837.84;;;12.36;73.13
11987;BME280;6053;51.382;6.768;2023-11-19T08:15:14;100837.31;;;12.28;73.56
11987;BME280;6053;51.382;6.768;2023-11-19T08:18:01;100836.53;;;12.40;73.07
11987;BME280;6053;51.382;6.768;2023-11-19T08:20:33;100846.41;;;12.41;72.98
11987;BME280;6053;51.382;6.768;2023-11-19T08:23:03;100845.38;;;12.23;73.86
11987;BME280;6053;51.382;6.768;2023-11-19T08:25:36;100841.06;;;12.22;74.00
11987;BME280;6053;51.382;6.768;2023-11-19T08:28:07;100842.75;;;12.57;72.96
11987;BME280;6053;51.382;6.768;2023-11-19T08:30:44;100841.53;;;12.45;72.84
11987;BME280;6053;51.382;6.768;2023-11-19T08:33:13;100830.44;;;12.58;72.45
11987;BME280;6053;51.382;6.768;2023-11-19T08:35:51;100834.69;;;12.50;73.13
11987;BME280;6053;51.382;6.768;2023-11-19T08:38:25;100828.56;;;12.67;72.76
11987;BME280;6053;51.382;6.768;2023-11-19T08:41:00;100839.94;;;12.19;74.06
11987;BME280;6053;51.382;6.768;2023-11-19T08:43:29;100833.75;;;12.40;73.66
11987;BME280;6053;51.382;6.768;2023-11-19T08:46:02;100830.75;;;13.09;71.34
11987;BME280;6053;51.382;6.768;2023-11-19T08:48:36;100829.78;;;12.54;72.83
11987;BME280;6053;51.382;6.768;2023-11-19T08:51:05;100836.22;;;12.76;72.42
11987;BME280;6053;51.382;6.768;2023-11-19T08:53:39;100834.88;;;12.55;72.96
11987;BME280;6053;51.382;6.768;2023-11-19T08:56:09;100829.78;;;12.79;71.79
11987;BME280;6053;51.382;6.768;2023-11-19T08:58:40;100840.53;;;12.77;72.06
11987;BME280;6053;51.382;6.768;2023-11-19T09:01:09;100842.09;;;12.78;72.32
11987;BME280;6053;51.382;6.768;2023-11-19T09:03:37;100845.16;;;12.80;72.02
11987;BME280;6053;51.382;6.768;2023-11-19T09:06:07;100855.19;;;12.90;72.20
11987;BME280;6053;51.382;6.768;2023-11-19T09:08:38;100848.94;;;12.98;71.44
11987;BME280;6053;51.382;6.768;2023-11-19T09:11:11;100848.63;;;12.71;72.76
11987;BME280;6053;51.382;6.768;2023-11-19T09:13:39;100846.31;;;12.82;72.41
11987;BME280;6053;51.382;6.768;2023-11-19T09:16:08;100850.81;;;13.13;71.26
11987;BME280;6053;51.382;6.768;2023-11-19T09:18:39;100843.88;;;13.30;70.51
11987;BME280;6053;51.382;6.768;2023-11-19T09:21:07;100837.59;;;13.17;70.55
11987;BME280;6053;51.382;6.768;2023-11-19T09:23:39;100844.44;;;13.38;70.12
11987;BME280;6053;51.382;6.768;2023-11-19T09:26:19;100834.75;;;13.08;70.45
11987;BME280;6053;51.382;6.768;2023-11-19T09:28:50;100840.31;;;12.96;71.00
11987;BME280;6053;51.382;6.768;2023-11-19T09:31:19;100821.22;;;12.98;71.17
11987;BME280;6053;51.382;6.768;2023-11-19T09:33:50;100825.53;;;13.11;70.57
11987;BME280;6053;51.382;6.768;2023-11-19T09:36:18;100837.31;;;13.03;71.23
11987;BME280;6053;51.382;6.768;2023-11-19T09:38:50;100828.22;;;13.02;70.74
11987;BME280;6053;51.382;6.768;2023-11-19T09:41:20;100842.88;;;13.37;70.09
11987;BME280;6053;51.382;6.768;2023-11-19T09:43:54;100828.03;;;13.31;69.53
11987;BME280;6053;51.382;6.768;2023-11-19T09:46:22;100836.38;;;13.18;69.56
11987;BME280;6053;51.382;6.768;2023-11-19T09:48:53;100840.03;;;13.28;69.58
11987;BME280;6053;51.382;6.768;2023-11-19T09:51:25;100838.28;;;13.21;69.36
11987;BME280;6053;51.382;6.768;2023-11-19T09:54:00;100836.88;;;13.38;69.97
11987;BME280;6053;51.382;6.768;2023-11-19T09:56:33;100842.16;;;13.24;69.16
11987;BME280;6053;51.382;6.768;2023-11-19T09:59:04;100844.41;;;13.04;70.49
11987;BME280;6053;51.382;6.768;2023-11-19T10:01:38;100840.25;;;13.21;69.72
11987;BME280;6053;51.382;6.768;2023-11-19T10:04:06;100843.13;;;13.30;69.69
11987;BME280;6053;51.382;6.768;2023-11-19T10:06:39;100838.56;;;13.36;69.32
11987;BME280;6053;51.382;6.768;2023-11-19T10:09:07;100842.88;;;13.03;69.66
11987;BME280;6053;51.382;6.768;2023-11-19T10:11:37;100835.03;;;13.23;70.47
11987;BME280;6053;51.382;6.768;2023-11-19T10:14:08;100839.84;;;13.22;69.27
11987;BME280;6053;51.382;6.768;2023-11-19T10:16:38;100834.34;;;13.31;68.56
11987;BME280;6053;51.382;6.768;2023-11-19T10:19:18;100828.88;;;13.06;69.64
11987;BME280;6053;51.382;6.768;2023-11-19T10:21:46;100836.44;;;13.40;68.88
11987;BME280;6053;51.382;6.768;2023-11-19T10:24:31;100840.56;;;13.35;68.83
11987;BME280;6053;51.382;6.768;2023-11-19T10:27:09;100823.44;;;13.71;68.65
11987;BME280;6053;51.382;6.768;2023-11-19T10:29:37;100824.31;;;13.46;69.15
11987;BME280;6053;51.382;6.768;2023-11-19T10:32:08;100823.88;;;13.69;68.17
11987;BME280;6053;51.382;6.768;2023-11-19T10:35:10;100825.66;;;13.75;67.73
11987;BME280;6053;51.382;6.768;2023-11-19T10:37:42;100810.09;;;13.78;67.94
11987;BME280;6053;51.382;6.768;2023-11-19T10:40:11;100827.75;;;13.72;66.52
11987;BME280;6053;51.382;6.768;2023-11-19T10:42:43;100823.13;;;13.69;66.81
11987;BME280;6053;51.382;6.768;2023-11-19T10:45:22;100822.50;;;13.52;68.11
11987;BME280;6053;51.382;6.768;2023-11-19T10:47:54;100830.16;;;13.61;67.00
11987;BME280;6053;51.382;6.768;2023-11-19T10:50:26;100825.63;;;13.54;67.28
11987;BME280;6053;51.382;6.768;2023-11-19T10:52:58;100816.69;;;13.59;67.01
11987;BME280;6053;51.382;6.768;2023-11-19T10:55:28;100823.63;;;13.97;66.60
11987;BME280;6053;51.382;6.768;2023-11-19T10:58:03;100813.03;;;14.26;66.29
11987;BME280;6053;51.382;6.768;2023-11-19T11:00:39;100811.03;;;14.05;65.80
11987;BME280;6053;51.382;6.768;2023-11-19T11:03:16;100815.84;;;13.83;66.10
11987;BME280;6053;51.382;6.768;2023-11-19T11:05:54;100829.13;;;13.88;65.94
11987;BME280;6053;51.382;6.768;2023-11-19T11:08:22;100808.00;;;13.91;64.34
11987;BME280;6053;51.382;6.768;2023-11-19T11:10:53;100819.91;;;13.91;66.64
11987;BME280;6053;51.382;6.768;2023-11-19T11:13:26;100810.13;;;13.66;66.77
11987;BME280;6053;51.382;6.768;2023-11-19T11:16:00;100814.53;;;13.75;65.85
11987;BME280;6053;51.382;6.768;2023-11-19T11:18:29;100811.44;;;13.73;65.92
11987;BME280;6053;51.382;6.768;2023-11-19T11:21:02;100800.53;;;13.79;65.89
11987;BME280;6053;51.382;6.768;2023-11-19T11:23:53;100804.00;;;13.71;65.69
11987;BME280;6053;51.382;6.768;2023-11-19T11:26:35;100805.88;;;13.73;65.53
11987;BME280;6053;51.382;6.768;2023-11-19T11:29:37;100796.28;;;13.87;66.00
11987;BME280;6053;51.382;6.768;2023-11-19T11:32:25;100799.75;;;13.78;66.92
11987;BME280;6053;51.382;6.768;2023-11-19T11:35:15;100796.75;;;13.94;65.62
11987;BME280;6053;51.382;6.768;2023-11-19T11:37:53;100793.38;;;13.90;65.48
11987;BME280;6053;51.382;6.768;2023-11-19T11:40:35;100781.59;;;14.08;65.67
11987;BME280;6053;51.382;6.768;2023-11-19T11:43:04;100792.16;;;14.00;65.15
11987;BME280;6053;51.382;6.768;2023-11-19T11:45:41;100790.06;;;13.83;64.98
11987;BME280;6053;51.382;6.768;2023-11-19T11:48:16;100789.84;;;13.77;64.87
11987;BME280;6053;51.382;6.768;2023-11-19T11:50:57;100791.75;;;14.02;66.56
11987;BME280;6053;51.382;6.768;2023-11-19T11:53:35;100776.78;;;13.78;64.91
11987;BME280;6053;51.382;6.768;2023-11-19T11:56:05;100771.94;;;13.70;66.74
11987;BME280;6053;51.382;6.768;2023-11-19T11:58:39;100773.81;;;13.51;66.32
11987;BME280;6053;51.382;6.768;2023-11-19T12:01:16;100775.28;;;13.65;66.17
11987;BME280;6053;51.382;6.768;2023-11-19T12:03:50;100779.28;;;13.85;65.13
11987;BME280;6053;51.382;6.768;2023-11-19T12:06:21;100774.63;;;14.03;66.09
11987;BME280;6053;51.382;6.768;2023-11-19T12:08:59;100770.00;;;14.09;63.42
11987;BME280;6053;51.382;6.768;2023-11-19T12:11:31;100761.91;;;13.93;63.93
11987;BME280;6053;51.382;6.768;2023-11-19T12:14:07;100765.06;;;14.04;64.94
11987;BME280;6053;51.382;6.768;2023-11-19T12:16:37;100757.34;;;14.08;64.02
11987;BME280;6053;51.382;6.768;2023-11-19T12:19:06;100761.13;;;13.93;65.48
11987;BME280;6053;51.382;6.768;2023-11-19T12:21:38;100754.94;;;14.10;63.91
11987;BME280;6053;51.382;6.768;2023-11-19T12:24:09;100755.59;;;14.23;64.57
11987;BME280;6053;51.382;6.768;2023-11-19T12:26:39;100746.19;;;14.21;65.80
11987;BME280;6053;51.382;6.768;2023-11-19T12:29:11;100748.88;;;14.33;64.31
11987;BME280;6053;51.382;6.768;2023-11-19T12:31:44;100750.56;;;14.09;63.88
11987;BME280;6053;51.382;6.768;2023-11-19T12:34:13;100748.41;;;13.83;65.97
11987;BME280;6053;51.382;6.768;2023-11-19T12:36:44;100745.91;;;14.06;65.51
11987;BME280;6053;51.382;6.768;2023-11-19T12:39:12;100739.25;;;13.95;64.53
11987;BME280;6053;51.382;6.768;2023-11-19T12:41:52;100734.22;;;13.81;66.07
11987;BME280;6053;51.382;6.768;2023-11-19T12:44:24;100748.00;;;13.63;66.58
11987;BME280;6053;51.382;6.768;2023-11-19T12:47:04;100756.81;;;13.71;67.33
11987;BME280;6053;51.382;6.768;2023-11-19T12:49:37;100756.59;;;13.01;71.29
11987;BME280;6053;51.382;6.768;2023-11-19T12:52:12;100754.84;;;12.82;71.24
11987;BME280;6053;51.382;6.768;2023-11-19T12:54:53;100751.53;;;12.62;71.46
11987;BME280;6053;51.382;6.768;2023-11-19T12:57:39;100756.22;;;12.53;72.15
11987;BME280;6053;51.382;6.768;2023-11-19T13:00:19;100770.47;;;12.76;72.80
11987;BME280;6053;51.382;6.768;2023-11-19T13:02:54;100770.22;;;13.08;73.46
11987;BME280;6053;51.382;6.768;2023-11-19T13:05:30;100773.50;;;12.57;74.70
11987;BME280;6053;51.382;6.768;2023-11-19T13:08:07;100768.16;;;13.21;73.03
11987;BME280;6053;51.382;6.768;2023-11-19T13:10:51;100776.22;;;13.28;73.48
11987;BME280;6053;51.382;6.768;2023-11-19T13:13:21;100759.81;;;13.55;71.88
11987;BME280;6053;51.382;6.768;2023-11-19T13:16:03;100762.53;;;13.12;73.64
11987;BME280;6053;51.382;6.768;2023-11-19T13:18:37;100764.78;;;13.04;73.41
11987;BME280;6053;51.382;6.768;2023-11-19T13:21:12;100762.91;;;13.35;72.73
11987;BME280;6053;51.382;6.768;2023-11-19T13:23:47;100755.84;;;13.65;71.83
11987;BME280;6053;51.382;6.768;2023-11-19T13:26:18;100758.38;;;13.29;73.16
11987;BME280;6053;51.382;6.768;2023-11-19T13:28:50;100764.13;;;13.34;72.53